createdAt,value
2018-09-15T00:02:19.701Z,4.57
2018-09-15T00:04:50.296Z,4.60
2018-09-15T00:07:21.237Z,4.00
2018-09-15T00:09:51.582Z,4.23
2018-09-15T00:12:21.911Z,4.27
2018-09-15T00:14:52.298Z,4.60
2018-09-15T00:17:23.110Z,4.67
2018-09-15T00:19:53.704Z,4.63
2018-09-15T00:22:24.131Z,5.20
2018-09-15T00:24:54.621Z,3.80
2018-09-15T00:27:26.103Z,5.10
2018-09-15T00:29:55.972Z,5.60
2018-09-15T00:32:26.451Z,4.90
2018-09-15T00:34:56.763Z,4.77
2018-09-15T00:37:27.726Z,4.67
2018-09-15T00:39:57.992Z,4.10
2018-09-15T00:42:28.363Z,4.73
2018-09-15T00:44:59.162Z,4.27
2018-09-15T00:47:30.731Z,4.67
2018-09-15T00:50:01.070Z,5.23
2018-09-15T00:52:31.194Z,4.80
2018-09-15T00:55:01.477Z,4.87
2018-09-15T00:57:32.239Z,4.80
2018-09-15T01:00:02.682Z,4.70
2018-09-15T01:02:33.562Z,5.37
2018-09-15T01:05:04.070Z,4.87
2018-09-15T01:07:34.920Z,5.10
2018-09-15T01:10:05.382Z,6.40
2018-09-15T01:12:35.898Z,4.63
2018-09-15T01:15:06.339Z,5.73
2018-09-15T01:17:37.042Z,5.23
2018-09-15T01:20:07.388Z,5.00
2018-09-15T01:22:37.893Z,4.90
2018-09-15T01:25:08.043Z,5.20
2018-09-15T01:27:39.447Z,5.43
2018-09-15T01:30:09.885Z,4.87
2018-09-15T01:32:40.452Z,4.97
2018-09-15T01:35:10.782Z,4.20
2018-09-15T01:37:41.481Z,5.70
2018-09-15T01:40:12.031Z,5.67
2018-09-15T01:42:42.366Z,5.10
2018-09-15T01:45:12.674Z,4.40
2018-09-15T01:47:43.308Z,5.13
2018-09-15T01:50:13.903Z,5.27
2018-09-15T01:52:44.123Z,5.30
2018-09-15T01:55:14.552Z,4.80
2018-09-15T01:59:10.459Z,4.83
2018-09-15T02:01:40.861Z,6.30
2018-09-15T02:04:11.219Z,5.07
2018-09-15T02:06:41.897Z,5.10
2018-09-15T02:09:15.079Z,5.10
2018-09-15T02:11:45.500Z,5.70
2018-09-15T02:14:16.216Z,5.97
2018-09-15T02:16:47.690Z,4.93
2018-09-15T02:19:18.246Z,5.30
2018-09-15T02:21:48.760Z,5.70
2018-09-15T02:24:19.164Z,5.57
2018-09-15T02:26:50.041Z,5.50
2018-09-15T02:29:20.305Z,5.50
2018-09-15T02:31:50.761Z,5.60
2018-09-15T02:34:21.328Z,6.70
2018-09-15T02:36:52.449Z,5.70
2018-09-15T02:39:22.700Z,5.97
2018-09-15T02:41:52.703Z,5.70
2018-09-15T02:44:23.055Z,5.77
2018-09-15T02:46:53.830Z,5.53
2018-09-15T02:49:24.464Z,5.10
2018-09-15T02:51:55.083Z,5.00
2018-09-15T02:54:25.614Z,5.50
2018-09-15T02:56:56.462Z,5.17
2018-09-15T02:59:26.770Z,5.93
2018-09-15T03:01:56.993Z,5.37
2018-09-15T03:04:27.741Z,4.47
2018-09-15T03:06:58.517Z,5.00
2018-09-15T03:09:28.890Z,4.80
2018-09-15T03:11:59.546Z,5.20
2018-09-15T03:14:30.029Z,5.47
2018-09-15T03:17:01.308Z,4.63
2018-09-15T03:19:31.643Z,4.60
2018-09-15T03:22:02.218Z,5.20
2018-09-15T03:24:32.566Z,5.17
2018-09-15T03:27:04.088Z,5.77
2018-09-15T03:29:35.241Z,5.10
2018-09-15T03:32:05.981Z,4.90
2018-09-15T03:34:36.819Z,4.90
2018-09-15T03:37:07.256Z,4.60
2018-09-15T03:39:37.650Z,5.57
2018-09-15T03:42:08.299Z,5.17
2018-09-15T03:44:38.833Z,4.57
2018-09-15T03:47:11.004Z,5.00
2018-09-15T03:49:41.514Z,5.53
2018-09-15T03:52:11.786Z,5.73
2018-09-15T03:54:42.278Z,5.00
2018-09-15T03:57:13.283Z,5.33
2018-09-15T03:59:43.709Z,5.67
2018-09-15T04:02:14.066Z,6.40
2018-09-15T04:04:44.314Z,5.57
2018-09-15T04:07:15.209Z,5.27
2018-09-15T04:09:45.247Z,5.60
2018-09-15T04:12:15.678Z,7.00
2018-09-15T04:14:46.670Z,6.00
2018-09-15T04:17:17.781Z,9.23
2018-09-15T04:19:48.278Z,6.40
2018-09-15T04:22:18.494Z,7.23
2018-09-15T04:24:48.902Z,7.07
2018-09-15T04:27:19.457Z,7.10
2018-09-15T04:29:50.163Z,8.03
2018-09-15T04:32:20.735Z,7.43
2018-09-15T04:34:51.839Z,10.10
2018-09-15T04:37:22.169Z,9.80
2018-09-15T04:39:52.594Z,10.63
2018-09-15T04:42:22.751Z,8.70
2018-09-15T04:44:52.994Z,6.83
2018-09-15T04:47:55.327Z,6.43
2018-09-15T04:50:25.594Z,6.87
2018-09-15T04:52:55.970Z,6.80
2018-09-15T04:55:26.305Z,6.83
2018-09-15T04:57:56.794Z,7.07
2018-09-15T05:00:27.157Z,6.47
2018-09-15T05:02:57.478Z,6.73
2018-09-15T05:05:28.619Z,7.27
2018-09-15T05:07:58.803Z,7.87
2018-09-15T05:10:29.262Z,7.10
2018-09-15T05:12:59.783Z,6.67
2018-09-15T05:15:31.350Z,6.80
2018-09-15T05:18:01.537Z,9.50
2018-09-15T05:20:31.679Z,9.60
2018-09-15T05:23:01.883Z,8.13
2018-09-15T05:25:33.204Z,10.03
2018-09-15T05:28:03.655Z,8.70
2018-09-15T05:30:34.381Z,8.63
2018-09-15T05:33:04.814Z,8.10
2018-09-15T05:35:35.856Z,8.30
2018-09-15T05:38:06.032Z,7.47
2018-09-15T05:40:36.206Z,10.23
2018-09-15T05:43:06.349Z,8.97
2018-09-15T05:45:37.653Z,7.87
2018-09-15T05:48:08.298Z,7.70
2018-09-15T05:50:38.846Z,7.53
2018-09-15T05:53:09.175Z,7.90
2018-09-15T05:55:40.382Z,7.97
2018-09-15T05:58:10.845Z,7.80
2018-09-15T06:00:41.235Z,8.40
2018-09-15T06:03:11.752Z,8.20
2018-09-15T06:05:42.593Z,8.20
2018-09-15T06:08:13.086Z,7.90
2018-09-15T06:10:43.482Z,8.07
2018-09-15T06:13:14.002Z,8.37
2018-09-15T06:15:44.179Z,6.83
2018-09-15T06:18:13.942Z,7.50
2018-09-15T06:20:43.661Z,7.63
2018-09-15T06:23:13.428Z,6.70
2018-09-15T06:25:43.184Z,6.73
2018-09-15T06:28:13.019Z,7.37
2018-09-15T06:30:42.766Z,6.90
2018-09-15T06:33:12.400Z,7.90
2018-09-15T06:35:42.331Z,10.33
2018-09-15T06:38:12.068Z,7.73
2018-09-15T06:40:41.805Z,8.17
2018-09-15T06:43:12.640Z,8.77
2018-09-15T06:45:42.983Z,12.30
2018-09-15T06:48:12.752Z,10.60
2018-09-15T06:50:42.477Z,7.53
2018-09-15T06:53:12.104Z,7.97
2018-09-15T06:55:41.845Z,8.83
2018-09-15T06:58:11.454Z,8.93
2018-09-15T07:00:41.351Z,8.00
2018-09-15T07:03:11.202Z,7.40
2018-09-15T07:05:41.022Z,7.73
2018-09-15T07:08:10.810Z,7.17
2018-09-15T07:10:40.522Z,6.47
2018-09-15T07:13:11.045Z,5.60
2018-09-15T07:15:40.842Z,6.37
2018-09-15T07:18:10.774Z,5.57
2018-09-15T07:20:40.531Z,4.90
2018-09-15T07:23:10.206Z,5.13
2018-09-15T07:25:39.955Z,5.50
2018-09-15T07:28:09.677Z,6.73
2018-09-15T07:30:39.588Z,5.27
2018-09-15T07:33:09.990Z,6.00
2018-09-15T07:35:40.000Z,4.87
2018-09-15T07:38:09.660Z,5.20
2018-09-15T07:40:39.426Z,4.87
2018-09-15T07:43:09.462Z,5.03
2018-09-15T07:45:39.277Z,4.30
2018-09-15T07:48:09.046Z,4.57
2018-09-15T07:50:38.858Z,5.20
2018-09-15T07:53:08.666Z,4.60
2018-09-15T07:55:38.406Z,4.20
2018-09-15T07:58:08.198Z,4.43
2018-09-15T08:00:38.047Z,5.30
2018-09-15T08:03:07.721Z,5.13
2018-09-15T08:05:37.435Z,3.87
2018-09-15T08:08:07.227Z,4.33
2018-09-15T08:10:37.041Z,4.03
2018-09-15T08:13:06.849Z,4.90
2018-09-15T08:15:36.523Z,4.10
2018-09-15T08:18:06.316Z,4.77
2018-09-15T08:20:36.005Z,4.10
2018-09-15T08:23:06.607Z,3.70
2018-09-15T08:25:36.320Z,4.87
2018-09-15T08:28:06.228Z,3.50
2018-09-15T08:30:36.125Z,5.50
2018-09-15T08:33:06.014Z,3.53
2018-09-15T08:35:36.310Z,4.30
2018-09-15T08:38:06.218Z,4.30
2018-09-15T08:40:35.947Z,3.97
2018-09-15T08:43:06.344Z,3.80
2018-09-15T08:45:37.486Z,3.53
2018-09-15T08:48:07.550Z,3.97
2018-09-15T08:50:37.361Z,3.70
2018-09-15T08:53:07.271Z,3.60
2018-09-15T08:55:37.771Z,3.77
2018-09-15T08:58:07.447Z,3.70
2018-09-15T09:00:37.241Z,4.30
2018-09-15T09:03:07.147Z,3.07
2018-09-15T09:05:37.070Z,3.33
2018-09-15T09:08:06.942Z,3.90
2018-09-15T09:10:36.742Z,3.50
2018-09-15T09:13:06.472Z,3.83
2018-09-15T09:15:36.258Z,3.77
2018-09-15T09:18:06.093Z,2.27
2018-09-15T09:20:35.730Z,2.13
2018-09-15T09:23:05.634Z,3.80
2018-09-15T09:25:35.218Z,3.93
2018-09-15T09:28:05.017Z,2.70
2018-09-15T09:30:34.780Z,2.37
2018-09-15T09:33:04.736Z,9.37
2018-09-15T09:35:34.586Z,6.40
2018-09-15T09:38:04.934Z,4.07
2018-09-15T09:40:34.923Z,2.50
2018-09-15T09:43:04.721Z,3.10
2018-09-15T09:45:34.538Z,2.40
2018-09-15T09:48:04.197Z,2.50
2018-09-15T09:50:34.045Z,3.00
2018-09-15T09:53:03.785Z,2.83
2018-09-15T09:55:33.581Z,2.10
2018-09-15T09:58:03.576Z,2.30
2018-09-15T10:00:38.199Z,1.73
2018-09-15T10:03:08.024Z,2.10
2018-09-15T10:05:38.363Z,2.47
2018-09-15T10:08:08.194Z,2.83
2018-09-15T10:11:09.558Z,1.97
2018-09-15T10:13:39.334Z,2.23
2018-09-15T10:16:09.069Z,3.40
2018-09-15T10:18:38.940Z,2.90
2018-09-15T10:21:08.694Z,3.00
2018-09-15T10:23:38.453Z,2.03
2018-09-15T10:26:08.578Z,2.67
2018-09-15T10:28:38.372Z,1.90
2018-09-15T10:31:08.096Z,2.00
2018-09-15T10:33:37.983Z,1.70
2018-09-15T10:36:07.808Z,2.20
2018-09-15T10:38:38.093Z,1.87
2018-09-15T10:41:08.018Z,2.03
2018-09-15T10:43:37.760Z,1.70
2018-09-15T10:46:07.778Z,1.90
2018-09-15T10:48:37.521Z,1.90
2018-09-15T10:51:07.322Z,2.30
2018-09-15T10:53:37.146Z,2.13
2018-09-15T10:56:07.855Z,7.20
2018-09-15T10:58:37.718Z,1.87
2018-09-15T11:01:07.430Z,2.03
2018-09-15T11:03:37.781Z,1.70
2018-09-15T11:06:08.505Z,2.23
2018-09-15T11:08:38.734Z,2.77
2018-09-15T11:11:09.268Z,1.97
2018-09-15T11:13:39.669Z,2.17
2018-09-15T11:16:09.415Z,1.60
2018-09-15T11:18:39.206Z,2.13
2018-09-15T11:21:09.029Z,1.93
2018-09-15T11:23:38.820Z,5.90
2018-09-15T11:26:08.568Z,2.20
2018-09-15T11:28:38.307Z,2.13
2018-09-15T11:31:08.176Z,24.43
2018-09-15T11:33:38.239Z,2.80
2018-09-15T11:36:07.875Z,2.13
2018-09-15T11:38:37.742Z,2.70
2018-09-15T11:41:07.996Z,2.37
2018-09-15T11:43:37.972Z,1.73
2018-09-15T11:46:07.784Z,1.80
2018-09-15T11:48:37.684Z,1.80
2018-09-15T11:51:07.533Z,1.97
2018-09-15T11:53:37.359Z,2.30
2018-09-15T11:56:07.119Z,1.90
2018-09-15T11:58:36.894Z,1.90
2018-09-15T12:01:06.634Z,4.90
2018-09-15T12:03:36.457Z,9.37
2018-09-15T12:06:06.207Z,13.90
2018-09-15T12:08:35.971Z,2.93
2018-09-15T12:11:05.752Z,2.77
2018-09-15T12:13:36.003Z,2.03
2018-09-15T12:16:06.198Z,2.80
2018-09-15T12:18:36.759Z,2.30
2018-09-15T12:21:07.172Z,2.93
2018-09-15T12:23:37.598Z,3.00
2018-09-15T12:26:08.142Z,3.77
2018-09-15T12:28:38.654Z,2.70
2018-09-15T12:31:09.084Z,2.90
2018-09-15T12:33:40.558Z,2.50
2018-09-15T12:36:10.806Z,2.60
2018-09-15T12:38:41.049Z,2.43
2018-09-15T12:41:11.586Z,2.57
2018-09-15T12:43:42.248Z,2.20
2018-09-15T12:46:12.561Z,3.77
2018-09-15T12:48:43.207Z,3.63
2018-09-15T12:51:13.757Z,3.73
2018-09-15T12:53:45.140Z,3.30
2018-09-15T12:56:15.542Z,4.93
2018-09-15T12:58:45.635Z,4.43
2018-09-15T13:01:15.827Z,2.53
2018-09-15T13:03:46.673Z,3.07
2018-09-15T13:06:17.288Z,2.77
2018-09-15T13:08:47.821Z,3.23
2018-09-15T13:11:18.370Z,2.53
2018-09-15T13:13:49.498Z,2.80
2018-09-15T13:16:19.969Z,2.97
2018-09-15T13:18:50.486Z,2.10
2018-09-15T13:21:20.806Z,2.13
2018-09-15T13:23:51.510Z,3.63
2018-09-15T13:26:22.106Z,3.00
2018-09-15T13:28:52.425Z,2.47
2018-09-15T13:31:23.224Z,1.97
2018-09-15T13:33:54.227Z,3.00
2018-09-15T13:36:24.734Z,2.77
2018-09-15T13:38:55.279Z,3.77
2018-09-15T13:41:26.059Z,3.13
2018-09-15T13:43:57.383Z,2.50
2018-09-15T13:46:28.110Z,1.90
2018-09-15T13:48:58.939Z,2.37
2018-09-15T13:51:29.263Z,1.83
2018-09-15T13:54:00.477Z,1.93
2018-09-15T13:56:30.730Z,1.73
2018-09-15T13:59:01.220Z,2.17
2018-09-15T14:01:31.680Z,2.57
2018-09-15T14:04:02.478Z,2.60
2018-09-15T14:06:32.958Z,3.10
2018-09-15T14:09:03.935Z,2.53
2018-09-15T14:11:34.306Z,3.10
2018-09-15T14:14:05.174Z,2.57
2018-09-15T14:16:35.655Z,2.03
2018-09-15T14:19:06.103Z,3.87
2018-09-15T14:21:37.624Z,2.67
2018-09-15T14:24:08.998Z,2.57
2018-09-15T14:26:39.602Z,2.20
2018-09-15T14:29:10.009Z,2.27
2018-09-15T14:31:40.337Z,2.37
2018-09-15T14:34:11.014Z,3.17
2018-09-15T14:36:41.376Z,1.80
2018-09-15T14:39:12.593Z,1.90
2018-09-15T14:41:43.082Z,2.73
2018-09-15T14:44:13.710Z,2.20
2018-09-15T14:46:43.971Z,4.20
2018-09-15T14:49:14.395Z,2.00
2018-09-15T14:51:44.702Z,3.20
2018-09-15T14:54:15.627Z,2.60
2018-09-15T14:56:45.887Z,2.30
2018-09-15T14:59:16.548Z,2.30
2018-09-15T15:01:47.229Z,2.50
2018-09-15T15:04:18.320Z,3.30
2018-09-15T15:06:48.577Z,2.23
2018-09-15T15:09:18.917Z,3.80
2018-09-15T15:11:49.455Z,2.90
2018-09-15T15:14:21.285Z,5.80
2018-09-15T15:16:51.794Z,2.80
2018-09-15T15:19:21.527Z,3.97
2018-09-15T15:21:51.538Z,8.17
2018-09-15T15:24:22.081Z,7.30
2018-09-15T15:26:51.646Z,8.50
2018-09-15T15:29:21.348Z,6.60
2018-09-15T15:31:51.038Z,5.03
2018-09-15T15:34:20.752Z,3.50
2018-09-15T15:36:50.628Z,3.00
2018-09-15T15:39:20.511Z,3.70
2018-09-15T15:42:53.640Z,9.30
2018-09-15T15:45:23.612Z,3.07
2018-09-15T15:47:53.590Z,2.80
2018-09-15T15:50:23.449Z,3.93
2018-09-15T15:52:53.190Z,3.23
2018-09-15T15:55:23.180Z,2.93
2018-09-15T15:57:52.943Z,2.90
2018-09-15T16:00:22.901Z,2.80
2018-09-15T16:02:52.723Z,3.20
2018-09-15T16:05:22.421Z,2.80
2018-09-15T16:07:52.160Z,3.67
2018-09-15T16:10:21.818Z,3.13
2018-09-15T16:12:51.505Z,4.17
2018-09-15T16:16:23.958Z,3.70
2018-09-15T16:18:53.690Z,2.97
2018-09-15T16:21:23.434Z,3.20
2018-09-15T16:23:53.309Z,4.13
2018-09-15T16:26:23.312Z,4.33
2018-09-15T16:28:53.298Z,8.33
2018-09-15T16:31:22.985Z,5.10
2018-09-15T16:33:52.939Z,4.03
2018-09-15T16:36:22.888Z,4.27
2018-09-15T16:38:52.771Z,4.00
2018-09-15T16:41:23.169Z,6.00
2018-09-15T16:43:53.696Z,6.23
2018-09-15T16:46:23.850Z,3.13
2018-09-15T16:48:54.062Z,4.20
2018-09-15T16:51:24.986Z,4.67
2018-09-15T16:53:55.595Z,5.17
2018-09-15T16:56:56.598Z,3.37
2018-09-15T16:59:26.802Z,3.50
2018-09-15T17:01:57.830Z,4.23
2018-09-15T17:04:28.358Z,4.13
2018-09-15T17:06:58.679Z,4.00
2018-09-15T17:09:30.099Z,3.60
2018-09-15T17:12:00.368Z,5.50
2018-09-15T17:14:30.494Z,3.70
2018-09-15T17:17:00.800Z,3.37
2018-09-15T17:19:31.923Z,7.97
2018-09-15T17:22:02.020Z,5.90
2018-09-15T17:24:32.487Z,5.17
2018-09-15T17:27:02.853Z,5.30
2018-09-15T17:29:33.814Z,4.37
2018-09-15T17:32:04.068Z,4.00
2018-09-15T17:34:34.468Z,4.47
2018-09-15T17:37:04.847Z,5.20
2018-09-15T17:39:36.265Z,6.87
2018-09-15T17:42:06.854Z,5.60
2018-09-15T17:44:37.435Z,3.87
2018-09-15T17:47:07.718Z,5.23
2018-09-15T17:49:39.361Z,6.10
2018-09-15T17:52:09.794Z,5.00
2018-09-15T17:54:40.278Z,4.80
2018-09-15T17:57:10.769Z,5.63
2018-09-15T17:59:41.996Z,5.93
2018-09-15T18:02:12.157Z,5.50
2018-09-15T18:04:42.628Z,7.10
2018-09-15T18:07:13.058Z,6.07
2018-09-15T18:09:44.136Z,7.40
2018-09-15T18:12:14.370Z,7.73
2018-09-15T18:14:44.604Z,5.90
2018-09-15T18:17:15.066Z,6.77
2018-09-15T18:19:46.321Z,7.60
2018-09-15T18:22:16.729Z,7.50
2018-09-15T18:24:47.168Z,6.70
2018-09-15T18:27:17.678Z,6.57
2018-09-15T18:29:48.912Z,6.23
2018-09-15T18:32:19.026Z,5.03
2018-09-15T18:34:49.842Z,4.40
2018-09-15T18:37:20.130Z,6.77
2018-09-15T18:39:51.786Z,8.23
2018-09-15T18:42:22.246Z,10.07
2018-09-15T18:44:52.675Z,9.73
2018-09-15T18:47:22.660Z,6.33
2018-09-15T18:49:53.818Z,6.30
2018-09-15T18:52:23.935Z,5.70
2018-09-15T18:54:54.542Z,5.40
2018-09-15T18:57:24.811Z,5.13
2018-09-15T18:59:56.051Z,4.73
2018-09-15T19:02:26.309Z,5.10
2018-09-15T19:04:56.850Z,4.90
2018-09-15T19:07:27.496Z,4.47
2018-09-15T19:09:58.362Z,4.20
2018-09-15T19:12:28.528Z,4.50
2018-09-15T19:14:59.063Z,3.60
2018-09-15T19:17:29.428Z,4.13
2018-09-15T19:20:00.084Z,5.17
2018-09-15T19:22:30.481Z,4.07
2018-09-15T19:25:01.074Z,5.20
2018-09-15T19:27:31.452Z,3.83
2018-09-15T19:30:02.749Z,4.10
2018-09-15T19:32:32.908Z,4.37
2018-09-15T19:35:03.614Z,4.27
2018-09-15T19:37:33.853Z,4.63
2018-09-15T19:40:05.928Z,4.80
2018-09-15T19:42:36.292Z,4.53
2018-09-15T19:45:07.010Z,4.73
2018-09-15T19:47:37.239Z,4.20
2018-09-15T19:50:08.649Z,4.23
2018-09-15T19:52:39.181Z,4.60
2018-09-15T19:55:09.814Z,4.90
2018-09-15T19:57:40.322Z,4.30
2018-09-15T20:00:11.323Z,5.23
2018-09-15T20:02:41.601Z,4.70
2018-09-15T20:05:12.150Z,4.17
2018-09-15T20:07:42.451Z,4.90
2018-09-15T20:10:12.984Z,5.37
2018-09-15T20:12:43.501Z,5.60
2018-09-15T20:15:24.064Z,4.50
2018-09-15T20:17:53.011Z,4.60
2018-09-15T20:20:22.346Z,4.93
2018-09-15T20:22:54.294Z,4.90
2018-09-15T20:25:24.358Z,5.07
2018-09-15T20:27:54.720Z,4.30
2018-09-15T20:30:25.366Z,5.40
2018-09-15T20:32:56.008Z,4.80
2018-09-15T20:35:26.242Z,4.63
2018-09-15T20:37:56.627Z,5.27
2018-09-15T20:40:28.097Z,5.10
2018-09-15T20:42:58.172Z,5.70
2018-09-15T20:45:28.837Z,5.10
2018-09-15T20:47:59.306Z,5.50
2018-09-15T20:50:29.724Z,4.93
2018-09-15T20:53:00.247Z,4.73
2018-09-15T20:55:30.410Z,5.20
2018-09-15T20:58:00.343Z,5.97
2018-09-15T21:00:31.241Z,4.70
2018-09-15T21:03:01.654Z,4.73
2018-09-15T21:05:31.838Z,5.23
2018-09-15T21:08:02.100Z,4.60
2018-09-15T21:10:33.327Z,5.63
2018-09-15T21:13:03.964Z,5.20
2018-09-15T21:15:34.286Z,4.70
2018-09-15T21:18:04.727Z,6.23
2018-09-15T21:20:35.374Z,6.50
2018-09-15T21:23:05.995Z,5.37
2018-09-15T21:25:36.191Z,5.93
2018-09-15T21:28:06.660Z,6.37
2018-09-15T21:30:37.542Z,6.37
2018-09-15T21:33:08.290Z,6.00
2018-09-15T21:35:38.703Z,7.50
2018-09-15T21:38:09.138Z,7.33
2018-09-15T21:40:40.394Z,5.70
2018-09-15T21:43:10.882Z,6.53
2018-09-15T21:45:41.605Z,6.23
2018-09-15T21:48:12.016Z,6.00
2018-09-15T21:50:43.490Z,5.53
2018-09-15T21:53:13.814Z,5.40
2018-09-15T21:55:44.134Z,6.90
2018-09-15T21:58:14.667Z,5.33
2018-09-15T22:00:45.647Z,6.37
2018-09-15T22:03:18.413Z,5.70
2018-09-15T22:05:49.051Z,6.50
2018-09-15T22:08:19.680Z,7.00
2018-09-15T22:10:50.377Z,5.93
2018-09-15T22:13:20.832Z,11.47
2018-09-15T22:15:51.275Z,6.33
2018-09-15T22:18:21.694Z,8.27
2018-09-15T22:20:52.694Z,7.40
2018-09-15T22:23:23.220Z,6.97
2018-09-15T22:25:53.648Z,6.90
2018-09-15T22:28:24.106Z,7.30
2018-09-15T22:30:55.986Z,7.77
2018-09-15T22:33:26.519Z,7.00
2018-09-15T22:35:57.095Z,7.00
2018-09-15T22:38:27.562Z,6.23
2018-09-15T22:40:58.707Z,6.40
2018-09-15T22:43:29.026Z,6.30
2018-09-15T22:45:59.717Z,6.87
2018-09-15T22:48:30.201Z,6.90
2018-09-15T22:51:01.388Z,7.50
2018-09-15T22:53:32.132Z,7.07
2018-09-15T22:56:02.396Z,6.53
2018-09-15T22:58:32.802Z,6.70
2018-09-15T23:01:04.185Z,6.60
2018-09-15T23:03:34.657Z,7.43
2018-09-15T23:06:05.130Z,6.73
2018-09-15T23:08:35.633Z,6.40
2018-09-15T23:11:06.678Z,6.53
2018-09-15T23:13:37.245Z,7.90
2018-09-15T23:16:07.834Z,6.40
2018-09-15T23:18:38.267Z,6.37
2018-09-15T23:21:09.252Z,6.83
2018-09-15T23:23:39.477Z,6.63
2018-09-15T23:26:09.891Z,7.10
2018-09-15T23:28:40.187Z,6.50
2018-09-15T23:31:11.186Z,7.13
2018-09-15T23:33:41.802Z,6.63
2018-09-15T23:36:12.425Z,6.80
2018-09-15T23:38:42.946Z,6.73
2018-09-15T23:41:14.341Z,7.03
2018-09-15T23:43:44.973Z,7.73
2018-09-15T23:46:15.078Z,8.50
2018-09-15T23:48:45.225Z,7.67
2018-09-15T23:51:16.117Z,7.70
2018-09-15T23:53:46.638Z,6.50
2018-09-15T23:56:17.322Z,7.93
2018-09-15T23:58:47.702Z,7.63
